Terminal Aerodrome Forecast
Issued by NWS

Home | Current Version | Previous Version | Graphics & Text | Print | Product List | Glossary On
Versions: 1 2 3 4 5 6 7 8 9 10 11 12 13 14 15 16 17 18 19 20
634
FTUS43 KPAH 232320
TAFCGI
TAF
KCGI 232320Z 2400/2424 00000KT P6SM SKC
     FM240600 00000KT 4SM BR SKC
     FM240900 00000KT 1/2SM FG SCT002
     FM241200 VRB03KT 2SM BR SCT006
     FM241400 19005KT P6SM FEW035 SCT250=

USA.gov is the U.S. government's official web portal to all federal, state and local government web resources and services.